createdAt,value
2018-10-02T00:02:07.615Z,7.64
2018-10-02T00:05:11.936Z,7.59
2018-10-02T00:08:16.271Z,7.54
2018-10-02T00:11:25.914Z,7.45
2018-10-02T00:14:31.068Z,7.46
2018-10-02T00:17:35.364Z,7.41
2018-10-02T00:20:39.651Z,7.36
2018-10-02T00:23:43.942Z,7.28
2018-10-02T00:26:48.242Z,7.19
2018-10-02T00:29:52.524Z,7.14
2018-10-02T00:32:56.797Z,7.14
2018-10-02T00:36:01.115Z,7.16
2018-10-02T00:39:06.356Z,7.17
2018-10-02T00:42:10.700Z,7.16
2018-10-02T00:45:15.016Z,7.14
2018-10-02T00:48:19.481Z,7.16
2018-10-02T00:51:23.745Z,7.15
2018-10-02T00:54:28.035Z,7.19
2018-10-02T00:57:32.299Z,7.16
2018-10-02T01:00:36.593Z,7.17
2018-10-02T01:03:40.941Z,7.14
2018-10-02T01:06:45.251Z,7.09
2018-10-02T01:09:49.542Z,7.07
2018-10-02T01:12:54.905Z,7.04
2018-10-02T01:15:59.231Z,7.00
2018-10-02T01:19:03.474Z,6.94
2018-10-02T01:22:07.808Z,6.89
2018-10-02T01:25:12.094Z,6.86
2018-10-02T01:28:16.367Z,6.86
2018-10-02T01:31:20.652Z,6.83
2018-10-02T01:34:24.947Z,6.82
2018-10-02T01:37:29.238Z,6.83
2018-10-02T01:40:33.553Z,6.83
2018-10-02T01:43:37.828Z,6.83
2018-10-02T01:46:42.134Z,6.84
2018-10-02T01:49:46.454Z,6.86
2018-10-02T01:52:50.724Z,6.88
2018-10-02T01:55:55.018Z,6.90
2018-10-02T01:58:59.288Z,6.95
2018-10-02T02:02:03.592Z,6.95
2018-10-02T02:05:08.243Z,6.95
2018-10-02T02:08:12.535Z,6.99
2018-10-02T02:11:16.828Z,7.01
2018-10-02T02:14:21.192Z,7.06
2018-10-02T02:17:25.471Z,7.05
2018-10-02T02:20:29.771Z,7.10
2018-10-02T02:23:34.056Z,7.10
2018-10-02T02:26:38.356Z,7.09
2018-10-02T02:29:42.655Z,7.12
2018-10-02T02:32:46.940Z,7.18
2018-10-02T02:35:51.220Z,7.20
2018-10-02T02:38:55.512Z,7.24
2018-10-02T02:41:59.840Z,7.24
2018-10-02T02:45:04.081Z,7.27
2018-10-02T02:48:13.769Z,7.26
2018-10-02T02:51:19.919Z,7.26
2018-10-02T02:54:24.228Z,7.26
2018-10-02T02:57:28.492Z,7.29
2018-10-02T03:00:32.797Z,7.31
2018-10-02T03:03:37.056Z,7.35
2018-10-02T03:06:41.367Z,7.37
2018-10-02T03:09:45.679Z,7.39
2018-10-02T03:12:49.958Z,7.39
2018-10-02T03:15:54.273Z,7.42
2018-10-02T03:18:58.605Z,7.44
2018-10-02T03:22:02.920Z,7.49
2018-10-02T03:25:07.189Z,7.51
2018-10-02T03:28:11.506Z,7.51
2018-10-02T03:31:15.804Z,7.48
2018-10-02T03:34:20.135Z,7.46
2018-10-02T03:37:24.416Z,7.49
2018-10-02T03:40:28.745Z,7.54
2018-10-02T03:43:33.035Z,7.54
2018-10-02T03:46:37.333Z,7.53
2018-10-02T03:49:41.664Z,7.53
2018-10-02T03:52:45.927Z,7.55
2018-10-02T03:55:50.229Z,7.55
2018-10-02T03:58:54.501Z,7.57
2018-10-02T04:01:58.781Z,7.58
2018-10-02T04:05:03.070Z,7.58
2018-10-02T04:08:07.488Z,7.58
2018-10-02T04:11:11.737Z,7.57
2018-10-02T04:14:16.060Z,7.61
2018-10-02T04:17:20.357Z,7.61
2018-10-02T04:20:24.644Z,7.60
2018-10-02T04:23:28.929Z,7.59
2018-10-02T04:26:33.848Z,7.59
2018-10-02T04:29:38.141Z,7.59
2018-10-02T04:32:42.476Z,7.59
2018-10-02T04:35:46.808Z,7.59
2018-10-02T04:38:51.140Z,7.60
2018-10-02T04:41:55.431Z,7.60
2018-10-02T04:44:59.741Z,7.62
2018-10-02T04:48:03.980Z,7.64
2018-10-02T04:51:08.267Z,7.66
2018-10-02T04:54:12.564Z,7.66
2018-10-02T04:57:16.824Z,7.69
2018-10-02T05:00:21.091Z,7.66
2018-10-02T05:03:25.335Z,7.65
2018-10-02T05:06:29.613Z,7.64
2018-10-02T05:09:33.905Z,7.63
2018-10-02T05:12:38.202Z,7.64
2018-10-02T05:15:42.542Z,7.66
2018-10-02T05:18:46.846Z,7.67
2018-10-02T05:21:51.107Z,7.68
2018-10-02T05:24:55.348Z,7.71
2018-10-02T05:27:59.619Z,7.77
2018-10-02T05:31:04.333Z,7.90
2018-10-02T05:34:08.601Z,8.04
2018-10-02T05:37:13.027Z,8.16
2018-10-02T05:40:17.258Z,8.28
2018-10-02T05:43:21.546Z,8.33
2018-10-02T05:46:25.841Z,8.45
2018-10-02T05:49:30.093Z,8.51
2018-10-02T05:52:34.373Z,8.55
2018-10-02T05:55:38.629Z,8.59
2018-10-02T05:58:42.936Z,8.65
2018-10-02T06:01:47.274Z,8.70
2018-10-02T06:04:51.521Z,8.68
2018-10-02T06:07:57.385Z,8.67
2018-10-02T06:11:02.822Z,8.72
2018-10-02T06:14:07.353Z,8.68
2018-10-02T06:17:11.615Z,8.67
2018-10-02T06:20:15.876Z,8.71
2018-10-02T06:23:20.141Z,8.74
2018-10-02T06:26:24.438Z,8.73
2018-10-02T06:29:28.712Z,8.78
2018-10-02T06:32:33.009Z,8.80
2018-10-02T06:35:37.288Z,8.84
2018-10-02T06:38:41.688Z,8.88
2018-10-02T06:41:45.858Z,8.89
2018-10-02T06:44:50.149Z,8.94
2018-10-02T06:47:54.410Z,8.95
2018-10-02T06:50:58.727Z,8.95
2018-10-02T06:54:03.052Z,9.01
2018-10-02T06:57:07.480Z,9.07
2018-10-02T07:00:11.725Z,9.13
2018-10-02T07:03:16.186Z,9.16
2018-10-02T07:06:20.445Z,9.20
2018-10-02T07:09:24.736Z,9.20
2018-10-02T07:12:29.045Z,9.24
2018-10-02T07:15:33.314Z,9.29
2018-10-02T07:18:37.612Z,9.32
2018-10-02T07:21:41.878Z,9.35
2018-10-02T07:24:46.188Z,9.35
2018-10-02T07:27:50.629Z,9.36
2018-10-02T07:30:54.826Z,9.35
2018-10-02T07:33:59.111Z,9.33
2018-10-02T07:37:03.399Z,9.31
2018-10-02T07:40:07.702Z,9.31
2018-10-02T07:43:11.997Z,9.29
2018-10-02T07:46:16.284Z,9.26
2018-10-02T07:49:20.574Z,9.23
2018-10-02T07:52:24.907Z,9.23
2018-10-02T07:55:29.202Z,9.18
2018-10-02T07:58:33.533Z,9.14
2018-10-02T08:01:37.828Z,9.12
2018-10-02T08:04:42.209Z,9.13
2018-10-02T08:07:46.487Z,9.11
2018-10-02T08:10:51.972Z,9.14
2018-10-02T08:13:56.380Z,9.11
2018-10-02T08:17:00.639Z,9.12
2018-10-02T08:20:05.037Z,9.10
2018-10-02T08:23:09.300Z,9.10
2018-10-02T08:26:13.597Z,9.11
2018-10-02T08:29:17.894Z,9.10
2018-10-02T08:32:22.189Z,9.11
2018-10-02T08:35:26.513Z,9.17
2018-10-02T08:38:30.763Z,9.17
2018-10-02T08:41:35.058Z,9.18
2018-10-02T08:44:39.441Z,9.20
2018-10-02T08:47:43.652Z,9.23
2018-10-02T08:50:47.928Z,9.29
2018-10-02T08:53:52.270Z,9.28
2018-10-02T08:56:56.516Z,9.32
2018-10-02T09:00:00.772Z,9.36
2018-10-02T09:03:05.120Z,9.31
2018-10-02T09:06:09.365Z,9.25
2018-10-02T09:09:14.172Z,9.26
2018-10-02T09:12:18.439Z,9.21
2018-10-02T09:15:22.726Z,9.22
2018-10-02T09:18:27.097Z,9.23
2018-10-02T09:21:31.416Z,9.26
2018-10-02T09:24:35.722Z,9.32
2018-10-02T09:27:40.070Z,9.36
2018-10-02T09:30:49.554Z,9.37
2018-10-02T09:33:59.209Z,9.46
2018-10-02T09:38:10.282Z,9.51
2018-10-02T09:41:19.813Z,9.57
2018-10-02T09:44:24.129Z,9.65
2018-10-02T09:47:28.396Z,9.73
2018-10-02T09:50:32.716Z,9.82
2018-10-02T09:53:36.996Z,9.91
2018-10-02T09:56:42.689Z,9.98
2018-10-02T09:59:46.959Z,10.04
2018-10-02T10:02:56.272Z,10.08
2018-10-02T10:06:00.502Z,10.15
2018-10-02T10:09:05.749Z,10.20
2018-10-02T10:12:10.049Z,10.24
2018-10-02T10:15:14.317Z,10.28
2018-10-02T10:18:18.999Z,10.32
2018-10-02T10:21:23.284Z,10.38
2018-10-02T10:24:27.565Z,10.45
2018-10-02T10:27:31.827Z,10.53
2018-10-02T10:30:36.125Z,10.61
2018-10-02T10:33:40.416Z,10.64
2018-10-02T10:36:44.706Z,10.71
2018-10-02T10:39:49.040Z,10.80
2018-10-02T10:42:53.280Z,10.86
2018-10-02T10:45:57.519Z,10.93
2018-10-02T10:49:01.833Z,11.02
2018-10-02T10:52:06.107Z,11.07
2018-10-02T10:55:29.998Z,11.17
2018-10-02T10:58:34.306Z,11.44
2018-10-02T11:01:38.563Z,11.60
2018-10-02T11:04:42.924Z,11.85
2018-10-02T11:07:47.296Z,12.15
2018-10-02T11:10:51.577Z,12.38
2018-10-02T11:13:55.918Z,12.55
2018-10-02T11:17:00.104Z,12.64
2018-10-02T11:20:05.176Z,12.69
2018-10-02T11:23:09.494Z,12.72
2018-10-02T11:26:13.773Z,12.78
2018-10-02T11:29:18.062Z,12.82
2018-10-02T11:32:22.321Z,12.92
2018-10-02T11:35:26.769Z,13.01
2018-10-02T11:38:31.004Z,13.05
2018-10-02T11:41:35.304Z,13.05
2018-10-02T11:44:39.650Z,13.09
2018-10-02T11:47:43.880Z,13.27
2018-10-02T11:50:48.188Z,13.46
2018-10-02T11:53:52.429Z,13.58
2018-10-02T11:56:56.752Z,13.66
2018-10-02T12:00:01.000Z,13.75
2018-10-02T12:03:05.444Z,13.74
2018-10-02T12:06:10.240Z,13.75
2018-10-02T12:09:14.605Z,13.79
2018-10-02T12:12:18.879Z,13.92
2018-10-02T12:15:23.789Z,13.99
2018-10-02T12:18:28.033Z,13.96
2018-10-02T12:21:32.483Z,13.86
2018-10-02T12:24:36.800Z,13.82
2018-10-02T12:27:41.240Z,13.81
2018-10-02T12:30:45.636Z,13.85
2018-10-02T12:33:50.584Z,13.90
2018-10-02T12:36:54.852Z,13.91
2018-10-02T12:39:59.150Z,13.78
2018-10-02T12:43:03.396Z,13.63
2018-10-02T12:46:07.779Z,13.51
2018-10-02T12:49:12.049Z,13.48
2018-10-02T12:52:16.491Z,13.42
2018-10-02T12:55:20.768Z,13.42
2018-10-02T12:58:25.016Z,13.46
2018-10-02T13:01:29.294Z,13.44
2018-10-02T13:04:33.536Z,13.46
2018-10-02T13:07:37.790Z,13.46
2018-10-02T13:10:42.069Z,13.47
2018-10-02T13:13:46.308Z,13.52
2018-10-02T13:16:50.600Z,13.56
2018-10-02T13:19:54.917Z,13.58
2018-10-02T13:22:59.148Z,13.67
2018-10-02T13:26:03.408Z,13.76
2018-10-02T13:29:07.834Z,13.71
2018-10-02T13:32:12.113Z,13.56
2018-10-02T13:35:16.404Z,13.47
2018-10-02T13:38:20.676Z,13.45
2018-10-02T13:41:24.962Z,13.48
2018-10-02T13:44:29.209Z,13.45
2018-10-02T13:47:34.079Z,13.42
2018-10-02T13:50:38.367Z,13.40
2018-10-02T13:53:42.652Z,13.46
2018-10-02T13:56:46.929Z,13.46
2018-10-02T13:59:51.455Z,13.42
2018-10-02T14:02:55.722Z,13.43
2018-10-02T14:06:00.027Z,13.45
2018-10-02T14:09:05.675Z,13.53
2018-10-02T14:12:10.037Z,13.48
2018-10-02T14:15:14.381Z,13.35
2018-10-02T14:18:18.629Z,13.24
2018-10-02T14:21:22.904Z,13.17
2018-10-02T14:24:27.196Z,13.21
2018-10-02T14:27:31.454Z,13.30
2018-10-02T14:30:35.762Z,13.36
2018-10-02T14:33:40.054Z,13.39
2018-10-02T14:36:44.344Z,13.42
2018-10-02T14:39:48.640Z,13.46
2018-10-02T14:42:52.914Z,13.47
2018-10-02T14:45:57.189Z,13.38
2018-10-02T14:49:01.461Z,13.31
2018-10-02T14:52:05.779Z,13.22
2018-10-02T14:55:10.134Z,13.20
2018-10-02T14:58:14.404Z,13.17
2018-10-02T15:01:18.685Z,13.09
2018-10-02T15:04:22.981Z,12.90
2018-10-02T15:07:27.272Z,12.77
2018-10-02T15:10:31.531Z,12.71
2018-10-02T15:13:35.796Z,12.76
2018-10-02T15:16:40.077Z,12.65
2018-10-02T15:19:44.824Z,12.50
2018-10-02T15:22:49.123Z,12.37
2018-10-02T15:25:53.392Z,12.25
2018-10-02T15:28:57.680Z,12.21
2018-10-02T15:32:01.974Z,12.11
2018-10-02T15:35:06.277Z,12.06
2018-10-02T15:38:10.604Z,12.02
2018-10-02T15:41:14.893Z,11.96
2018-10-02T15:44:19.159Z,11.96
2018-10-02T15:47:23.464Z,12.08
2018-10-02T15:50:27.728Z,12.17
2018-10-02T15:53:32.017Z,12.21
2018-10-02T15:56:36.306Z,12.27
2018-10-02T15:59:40.590Z,12.32
2018-10-02T16:02:44.882Z,12.27
2018-10-02T16:05:49.179Z,12.22
2018-10-02T16:08:53.447Z,12.15
2018-10-02T16:11:57.702Z,12.15
2018-10-02T16:15:02.058Z,12.09
2018-10-02T16:18:06.476Z,12.13
2018-10-02T16:21:10.669Z,12.18
2018-10-02T16:24:14.930Z,12.17
2018-10-02T16:27:19.183Z,12.10
2018-10-02T16:30:23.508Z,12.03
2018-10-02T16:33:27.749Z,11.97
2018-10-02T16:36:32.008Z,11.88
2018-10-02T16:39:36.281Z,11.81
2018-10-02T16:42:40.533Z,11.75
2018-10-02T16:45:44.805Z,11.73
2018-10-02T16:48:49.082Z,11.66
2018-10-02T16:51:53.370Z,11.61
2018-10-02T16:54:57.668Z,11.60
2018-10-02T16:58:01.935Z,11.60
2018-10-02T17:01:06.228Z,11.64
2018-10-02T17:04:10.645Z,11.66
2018-10-02T17:07:14.845Z,11.65
2018-10-02T17:10:19.087Z,11.59
2018-10-02T17:13:23.341Z,11.36
2018-10-02T17:16:27.788Z,11.22
2018-10-02T17:19:32.061Z,11.03
2018-10-02T17:22:36.336Z,10.87
2018-10-02T17:25:40.585Z,10.77
2018-10-02T17:28:44.890Z,10.70
2018-10-02T17:31:49.157Z,10.66
2018-10-02T17:34:53.404Z,10.64
2018-10-02T17:37:57.643Z,10.65
2018-10-02T17:41:01.935Z,10.70
2018-10-02T17:44:06.161Z,10.73
2018-10-02T17:47:10.753Z,10.70
2018-10-02T17:50:15.041Z,10.74
2018-10-02T17:53:19.332Z,10.74
2018-10-02T17:56:23.618Z,10.77
2018-10-02T17:59:27.887Z,10.79
2018-10-02T18:02:32.156Z,10.76
2018-10-02T18:05:36.774Z,10.70
2018-10-02T18:08:41.106Z,10.71
2018-10-02T18:11:45.381Z,10.66
2018-10-02T18:14:49.699Z,10.67
2018-10-02T18:17:53.952Z,10.66
2018-10-02T18:20:58.249Z,10.62
2018-10-02T18:24:02.558Z,10.63
2018-10-02T18:27:06.824Z,10.61
2018-10-02T18:30:11.108Z,10.54
2018-10-02T18:33:15.390Z,10.53
2018-10-02T18:36:19.659Z,10.57
2018-10-02T18:39:23.973Z,10.58
2018-10-02T18:42:28.348Z,10.64
2018-10-02T18:45:32.698Z,10.72
2018-10-02T18:48:36.986Z,10.83
2018-10-02T18:51:43.822Z,10.92
2018-10-02T18:54:48.421Z,11.03
2018-10-02T18:57:55.938Z,11.08
2018-10-02T19:01:00.720Z,11.08
2018-10-02T19:04:04.982Z,10.92
2018-10-02T19:07:09.913Z,10.63
2018-10-02T19:10:15.170Z,10.36
2018-10-02T19:13:19.600Z,10.21
2018-10-02T19:16:28.697Z,10.10
2018-10-02T19:19:38.157Z,10.00
2018-10-02T19:22:42.581Z,9.97
2018-10-02T19:25:52.286Z,9.92
2018-10-02T19:28:57.129Z,9.88
2018-10-02T19:32:10.374Z,9.88
2018-10-02T19:35:14.726Z,9.95
2018-10-02T19:39:22.984Z,10.01
2018-10-02T19:42:27.648Z,9.98
2018-10-02T19:45:37.316Z,9.98
2018-10-02T19:48:41.765Z,9.99
2018-10-02T19:51:51.293Z,9.94
2018-10-02T19:54:56.105Z,9.94
2018-10-02T19:58:00.531Z,9.94
2018-10-02T20:01:05.580Z,9.98
2018-10-02T20:04:10.564Z,9.99
2018-10-02T20:07:15.320Z,9.96
2018-10-02T20:10:19.790Z,9.99
2018-10-02T20:13:25.103Z,10.06
2018-10-02T20:16:29.434Z,10.06
2018-10-02T20:19:34.408Z,10.10
2018-10-02T20:22:38.690Z,10.15
2018-10-02T20:25:43.493Z,10.19
2018-10-02T20:28:48.745Z,10.21
2018-10-02T20:31:54.007Z,10.23
2018-10-02T20:34:58.884Z,10.17
2018-10-02T20:38:05.564Z,10.13
2018-10-02T20:41:11.174Z,10.08
2018-10-02T20:44:16.526Z,10.07
2018-10-02T20:47:20.902Z,10.09
2018-10-02T20:50:26.113Z,10.09
2018-10-02T20:53:30.987Z,10.11
2018-10-02T20:56:35.226Z,10.14
2018-10-02T20:59:39.770Z,10.13
2018-10-02T21:02:46.564Z,10.16
2018-10-02T21:05:50.925Z,10.17
2018-10-02T21:08:57.825Z,10.22
2018-10-02T21:12:02.501Z,10.24
2018-10-02T21:15:07.282Z,10.20
2018-10-02T21:18:12.321Z,10.11
2018-10-02T21:21:17.571Z,10.05
2018-10-02T21:24:21.944Z,10.07
2018-10-02T21:27:26.800Z,10.10
2018-10-02T21:30:31.589Z,10.11
2018-10-02T21:33:36.541Z,10.14
2018-10-02T21:36:40.863Z,10.12
2018-10-02T21:39:45.453Z,10.04
2018-10-02T21:42:49.902Z,9.92
2018-10-02T21:45:54.608Z,9.88
2018-10-02T21:48:59.826Z,9.84
2018-10-02T21:52:04.300Z,9.82
2018-10-02T21:55:09.576Z,9.81
2018-10-02T21:58:14.593Z,9.84
2018-10-02T22:01:19.057Z,9.84
2018-10-02T22:04:23.976Z,9.86
2018-10-02T22:07:28.605Z,9.89
2018-10-02T22:10:33.079Z,9.88
2018-10-02T22:13:38.823Z,9.90
2018-10-02T22:16:43.867Z,9.88
2018-10-02T22:19:48.698Z,9.95
2018-10-02T22:22:53.844Z,10.03
2018-10-02T22:25:59.738Z,10.07
2018-10-02T22:29:04.677Z,10.08
2018-10-02T22:32:09.401Z,10.13
2018-10-02T22:35:13.713Z,10.23
2018-10-02T22:38:17.973Z,10.32
2018-10-02T22:41:22.379Z,10.41
2018-10-02T22:44:26.888Z,10.47
2018-10-02T22:47:31.985Z,10.54
2018-10-02T22:50:36.344Z,10.62
2018-10-02T22:53:40.740Z,10.67
2018-10-02T22:56:45.053Z,10.65
2018-10-02T22:59:50.411Z,10.66
2018-10-02T23:02:55.016Z,10.67
2018-10-02T23:05:59.412Z,10.68
2018-10-02T23:09:04.137Z,10.74
2018-10-02T23:12:09.725Z,10.78
2018-10-02T23:15:13.989Z,10.82
2018-10-02T23:18:18.381Z,10.81
2018-10-02T23:21:22.689Z,10.80
2018-10-02T23:24:26.981Z,10.78
2018-10-02T23:27:31.315Z,10.76
2018-10-02T23:30:35.689Z,10.76
2018-10-02T23:33:39.954Z,10.75
2018-10-02T23:36:44.242Z,10.75
2018-10-02T23:39:48.648Z,10.73
2018-10-02T23:42:52.950Z,10.81
2018-10-02T23:45:57.284Z,10.89
2018-10-02T23:49:01.573Z,10.90
2018-10-02T23:52:05.836Z,10.80
2018-10-02T23:55:10.148Z,10.74
2018-10-02T23:58:14.453Z,10.70
